createdAt,value
2019-04-22T00:00:37.278Z,14.13
2019-04-22T00:06:10.139Z,12.67
2019-04-22T00:11:25.106Z,12.27
2019-04-22T00:16:38.868Z,12.17
2019-04-22T00:21:50.213Z,10.90
2019-04-22T00:26:59.573Z,11.10
2019-04-22T00:32:05.525Z,10.47
2019-04-22T00:37:23.603Z,10.10
2019-04-22T00:47:39.983Z,9.63
2019-04-22T00:52:59.815Z,10.47
2019-04-22T00:58:02.562Z,9.60
2019-04-22T01:03:19.754Z,9.93
2019-04-22T01:08:30.673Z,9.50
2019-04-22T01:13:38.448Z,9.90
2019-04-22T01:18:49.024Z,10.30
2019-04-22T01:23:57.572Z,9.77
2019-04-22T01:29:02.508Z,9.27
2019-04-22T01:34:10.018Z,9.27
2019-04-22T01:39:37.605Z,9.40
2019-04-22T01:44:49.598Z,9.10
2019-04-22T01:49:54.123Z,9.30
2019-04-22T01:55:32.364Z,9.50
2019-04-22T02:00:13.986Z,10.77
2019-04-22T02:05:50.449Z,10.80
2019-04-22T02:10:53.084Z,10.37
2019-04-22T02:16:03.593Z,9.40
2019-04-22T02:21:09.390Z,9.80
2019-04-22T02:26:25.539Z,10.57
2019-04-22T02:41:54.980Z,10.40
2019-04-22T02:52:19.965Z,10.40
2019-04-22T03:08:09.909Z,10.10
2019-04-22T03:13:30.789Z,9.80
2019-04-22T03:18:41.975Z,9.50
2019-04-22T04:00:09.865Z,10.60
2019-04-22T04:05:10.011Z,10.60
2019-04-22T04:15:30.007Z,11.60
2019-04-22T04:21:32.919Z,11.80
2019-04-22T04:31:55.211Z,11.73
2019-04-22T04:37:10.280Z,11.00
2019-04-22T04:42:32.987Z,10.73
2019-04-22T04:47:39.107Z,10.90
2019-04-22T05:02:58.392Z,10.07
2019-04-22T05:08:35.375Z,9.27
2019-04-22T05:13:14.478Z,9.80
2019-04-22T05:18:33.075Z,11.13
2019-04-22T05:23:41.946Z,10.50
2019-04-22T05:28:42.295Z,10.00
2019-04-22T05:33:56.856Z,10.17
2019-04-22T05:39:06.073Z,10.60
2019-04-22T05:44:32.616Z,10.27
2019-04-22T05:49:35.014Z,10.87
2019-04-22T05:54:48.681Z,9.43
2019-04-22T05:59:59.516Z,9.27
2019-04-22T06:05:11.939Z,9.27
2019-04-22T06:10:39.824Z,8.73
2019-04-22T06:15:36.369Z,8.67
2019-04-22T06:20:53.758Z,7.83
2019-04-22T06:26:21.969Z,7.30
2019-04-22T06:31:20.964Z,7.17
2019-04-22T06:36:27.493Z,6.83
2019-04-22T06:41:35.390Z,6.60
2019-04-22T06:46:47.687Z,6.27
2019-04-22T06:52:01.183Z,6.10
2019-04-22T06:57:06.339Z,5.90
2019-04-22T07:02:16.628Z,5.97
2019-04-22T07:07:25.220Z,5.30
2019-04-22T07:12:41.789Z,5.27
2019-04-22T07:17:56.816Z,5.70
2019-04-22T07:23:09.618Z,5.20
2019-04-22T07:28:17.742Z,5.20
2019-04-22T07:33:34.906Z,5.80
2019-04-22T07:38:49.976Z,5.70
2019-04-22T07:44:09.805Z,5.87
2019-04-22T07:49:02.101Z,6.23
2019-04-22T07:54:14.400Z,5.93
2019-04-22T07:59:30.635Z,5.70
2019-04-22T08:04:53.771Z,5.20
2019-04-22T08:09:53.982Z,5.27
2019-04-22T08:14:53.631Z,5.43
2019-04-22T08:20:08.923Z,5.50
2019-04-22T08:25:19.573Z,5.50
2019-04-22T08:30:34.897Z,5.27
2019-04-22T08:35:52.444Z,5.50
2019-04-22T08:41:24.822Z,5.23
2019-04-22T08:51:36.265Z,5.27
2019-04-22T08:56:45.841Z,4.70
2019-04-22T09:01:57.348Z,4.63
2019-04-22T09:12:32.768Z,4.00
2019-04-22T09:17:47.910Z,3.93
2019-04-22T09:22:42.623Z,4.23
2019-04-22T09:27:51.160Z,4.03
2019-04-22T09:33:02.908Z,5.00
2019-04-22T09:44:01.154Z,4.37
2019-04-22T09:49:12.336Z,4.90
2019-04-22T09:54:34.434Z,5.30
2019-04-22T09:59:58.632Z,5.57
2019-04-22T10:05:23.821Z,5.83
2019-04-22T10:10:49.013Z,5.90
2019-04-22T10:15:55.868Z,6.20
2019-04-22T10:21:12.753Z,6.33
2019-04-22T10:26:21.864Z,6.43
2019-04-22T10:36:19.498Z,6.10
2019-04-22T10:41:30.669Z,5.63
2019-04-22T10:46:40.209Z,5.30
2019-04-22T10:51:50.425Z,5.60
2019-04-22T10:57:03.339Z,4.57
2019-04-22T11:02:11.780Z,5.10
2019-04-22T11:07:25.233Z,5.43
2019-04-22T11:12:32.282Z,4.70
2019-04-22T11:17:39.687Z,4.73
2019-04-22T11:22:48.920Z,4.70
2019-04-22T11:28:00.006Z,4.83
2019-04-22T11:33:08.662Z,4.23
2019-04-22T11:38:17.348Z,4.60
2019-04-22T11:43:26.205Z,4.43
2019-04-22T11:48:35.957Z,4.73
2019-04-22T11:53:44.903Z,4.20
2019-04-22T11:58:55.161Z,4.33
2019-04-22T12:04:03.959Z,4.03
2019-04-22T12:09:15.298Z,3.90
2019-04-22T12:14:24.056Z,4.27
2019-04-22T12:19:35.238Z,4.43
2019-04-22T12:24:44.229Z,3.50
2019-04-22T12:29:53.234Z,3.47
2019-04-22T12:35:01.861Z,3.53
2019-04-22T12:40:13.069Z,3.70
2019-04-22T12:45:22.588Z,3.67
2019-04-22T12:50:34.860Z,2.90
2019-04-22T12:55:42.036Z,3.17
2019-04-22T13:00:51.397Z,2.90
2019-04-22T13:05:59.584Z,2.73
2019-04-22T13:11:12.335Z,2.90
2019-04-22T13:16:17.596Z,2.53
2019-04-22T13:21:26.956Z,2.00
2019-04-22T13:26:35.924Z,1.57
2019-04-22T13:31:44.745Z,2.30
2019-04-22T13:36:52.891Z,2.40
2019-04-22T13:42:05.627Z,2.90
2019-04-22T13:47:29.788Z,3.27
2019-04-22T13:53:00.662Z,3.30
2019-04-22T13:57:47.456Z,2.80
2019-04-22T14:02:50.665Z,2.90
2019-04-22T14:08:00.834Z,3.10
2019-04-22T14:13:07.882Z,4.67
2019-04-22T14:18:16.921Z,2.60
2019-04-22T14:23:26.688Z,2.60
2019-04-22T14:28:35.739Z,2.83
2019-04-22T14:33:46.547Z,2.93
2019-04-22T14:38:54.382Z,13.73
2019-04-22T14:45:05.154Z,6.27
2019-04-22T14:49:37.141Z,7.07
2019-04-22T14:54:34.796Z,3.33
2019-04-22T14:59:32.614Z,3.33
2019-04-22T15:04:42.885Z,3.20
2019-04-22T15:09:52.276Z,3.30
2019-04-22T15:15:03.869Z,4.70
2019-04-22T15:20:21.425Z,4.63
2019-04-22T15:25:30.605Z,4.80
2019-04-22T15:30:39.436Z,4.50
2019-04-22T15:35:49.360Z,5.03
2019-04-22T15:40:58.654Z,4.70
2019-04-22T15:46:07.664Z,4.83
2019-04-22T15:51:16.514Z,5.93
2019-04-22T15:56:26.380Z,4.60
2019-04-22T16:01:37.845Z,3.60
2019-04-22T16:06:45.075Z,3.47
2019-04-22T16:12:09.997Z,3.00
2019-04-22T16:17:08.722Z,3.40
2019-04-22T16:22:19.740Z,3.13
2019-04-22T16:27:30.183Z,3.30
2019-04-22T16:32:39.169Z,3.50
2019-04-22T16:37:48.611Z,3.70
2019-04-22T16:42:59.333Z,3.90
2019-04-22T16:48:07.495Z,4.20
2019-04-22T16:53:16.857Z,3.80
2019-04-22T16:58:25.269Z,4.20
2019-04-22T17:03:52.372Z,2.90
2019-04-22T17:09:02.634Z,3.67
2019-04-22T17:14:16.725Z,3.80
2019-04-22T17:19:23.671Z,4.57
2019-04-22T17:24:37.405Z,4.27
2019-04-22T17:29:46.365Z,3.87
2019-04-22T17:35:00.178Z,5.60
2019-04-22T17:40:30.082Z,4.17
2019-04-22T17:46:06.818Z,4.20
2019-04-22T17:51:24.053Z,4.07
2019-04-22T17:56:30.784Z,5.53
2019-04-22T18:01:40.292Z,6.17
2019-04-22T18:07:15.801Z,6.40
2019-04-22T18:12:25.825Z,5.60
2019-04-22T18:17:37.317Z,6.40
2019-04-22T18:22:25.090Z,5.47
2019-04-22T18:32:55.549Z,3.97
2019-04-22T18:38:18.204Z,3.97
2019-04-22T18:43:21.945Z,3.90
2019-04-22T18:48:32.136Z,3.83
2019-04-22T18:54:01.839Z,4.20
2019-04-22T18:58:59.538Z,3.77
2019-04-22T19:04:08.976Z,4.03
2019-04-22T19:09:34.985Z,4.23
2019-04-22T19:20:03.138Z,4.03
2019-04-22T19:24:59.927Z,3.63
2019-04-22T19:30:16.343Z,4.20
2019-04-22T19:35:18.514Z,4.40
2019-04-22T19:40:55.543Z,4.07
2019-04-22T19:45:55.835Z,4.53
2019-04-22T19:51:13.993Z,4.40
2019-04-22T19:56:08.317Z,4.97
2019-04-22T20:01:25.444Z,5.00
2019-04-22T20:06:36.759Z,4.97
2019-04-22T20:11:45.036Z,5.23
2019-04-22T20:16:49.136Z,5.20
2019-04-22T20:22:03.045Z,5.63
2019-04-22T20:32:23.413Z,6.30
2019-04-22T20:37:39.884Z,6.07
2019-04-22T20:42:50.143Z,5.80
2019-04-22T20:47:46.554Z,6.67
2019-04-22T20:53:06.833Z,5.97
2019-04-22T20:58:12.204Z,7.10
2019-04-22T21:03:13.323Z,7.47
2019-04-22T21:08:36.911Z,7.60
2019-04-22T21:13:46.632Z,7.67
2019-04-22T21:18:47.441Z,7.37
2019-04-22T21:23:54.207Z,7.57
2019-04-22T21:29:07.172Z,7.60
2019-04-22T21:34:19.597Z,7.13
2019-04-22T21:39:26.305Z,8.70
2019-04-22T21:44:42.601Z,9.47
2019-04-22T21:50:07.872Z,10.87
2019-04-22T21:55:06.541Z,11.20
2019-04-22T22:00:17.021Z,10.87
2019-04-22T22:05:12.571Z,10.27
2019-04-22T22:10:37.049Z,10.30
2019-04-22T22:15:52.384Z,9.37
2019-04-22T22:21:19.378Z,8.90
2019-04-22T22:26:12.294Z,8.93
2019-04-22T22:31:32.709Z,8.63
2019-04-22T22:36:29.581Z,8.53
2019-04-22T22:41:25.865Z,8.30
2019-04-22T23:08:54.059Z,7.20
2019-04-22T23:13:56.993Z,7.20
2019-04-22T23:19:02.732Z,6.67
2019-04-22T23:24:29.958Z,6.27
2019-04-22T23:29:44.775Z,6.70
2019-04-22T23:35:01.756Z,4.47
2019-04-22T23:40:18.834Z,7.33
2019-04-22T23:45:21.169Z,6.93
2019-04-22T23:50:34.024Z,7.67
2019-04-22T23:55:45.848Z,6.77
